createdAt,value
2019-05-03T00:00:04.911Z,984.17
2019-05-03T00:01:04.926Z,984.16
2019-05-03T00:02:04.898Z,984.17
2019-05-03T00:03:04.893Z,984.1
2019-05-03T00:04:04.892Z,984.1
2019-05-03T00:05:04.967Z,984.15
2019-05-03T00:06:04.896Z,984.1
2019-05-03T00:07:04.878Z,984.09
2019-05-03T00:08:04.876Z,984.13
2019-05-03T00:09:04.871Z,984.06
2019-05-03T00:10:04.880Z,984.07
2019-05-03T00:11:04.905Z,984.07
2019-05-03T00:12:04.860Z,984.07
2019-05-03T00:13:04.855Z,984.07
2019-05-03T00:14:04.862Z,984.04
2019-05-03T00:15:04.858Z,984.14
2019-05-03T00:16:04.845Z,984.06
2019-05-03T00:17:04.840Z,984.07
2019-05-03T00:18:04.842Z,984.02
2019-05-03T00:19:04.839Z,984
2019-05-03T00:20:04.838Z,984.03
2019-05-03T00:21:04.826Z,984.03
2019-05-03T00:22:04.824Z,984.06
2019-05-03T00:23:04.818Z,983.99
2019-05-03T00:24:04.815Z,984.02
2019-05-03T00:25:08.262Z,984.04
2019-05-03T00:26:04.815Z,984.03
2019-05-03T00:27:04.805Z,984.02
2019-05-03T00:28:04.803Z,984.03
2019-05-03T00:29:04.806Z,984.03
2019-05-03T00:30:04.794Z,984.01
2019-05-03T00:31:04.792Z,984.04
2019-05-03T00:32:04.791Z,984.02
2019-05-03T00:33:04.799Z,983.99
2019-05-03T00:34:04.782Z,984
2019-05-03T00:35:04.779Z,983.97
2019-05-03T00:36:04.781Z,983.95
2019-05-03T00:37:04.773Z,983.94
2019-05-03T00:38:04.781Z,983.97
2019-05-03T00:39:04.764Z,983.96
2019-05-03T00:40:04.760Z,983.97
2019-05-03T00:41:04.757Z,983.97
2019-05-03T00:42:04.758Z,983.96
2019-05-03T00:43:04.752Z,983.95
2019-05-03T00:44:04.745Z,983.93
2019-05-03T00:45:04.742Z,983.96
2019-05-03T00:46:04.736Z,983.93
2019-05-03T00:47:04.732Z,983.92
2019-05-03T00:48:04.729Z,983.95
2019-05-03T00:49:04.729Z,983.92
2019-05-03T00:50:04.725Z,983.89
2019-05-03T00:51:04.720Z,983.92
2019-05-03T00:52:04.713Z,983.93
2019-05-03T00:53:04.711Z,983.9
2019-05-03T00:54:04.735Z,983.93
2019-05-03T00:55:15.653Z,983.9
2019-05-03T00:56:04.702Z,983.86
2019-05-03T00:57:04.700Z,983.87
2019-05-03T00:58:04.697Z,983.86
2019-05-03T00:59:04.690Z,983.83
2019-05-03T01:00:04.687Z,983.86
2019-05-03T01:01:04.682Z,983.85
2019-05-03T01:02:04.679Z,983.82
2019-05-03T01:03:04.674Z,983.85
2019-05-03T01:04:04.685Z,983.86
2019-05-03T01:05:04.673Z,983.85
2019-05-03T01:06:04.663Z,983.87
2019-05-03T01:07:04.661Z,983.88
2019-05-03T01:08:04.656Z,983.89
2019-05-03T01:09:04.657Z,983.85
2019-05-03T01:10:04.652Z,983.88
2019-05-03T01:11:04.645Z,983.86
2019-05-03T01:12:04.645Z,983.85
2019-05-03T01:13:04.638Z,983.86
2019-05-03T01:14:04.635Z,983.88
2019-05-03T01:15:04.650Z,983.85
2019-05-03T01:16:04.628Z,983.84
2019-05-03T01:17:04.629Z,983.84
2019-05-03T01:18:04.622Z,983.82
2019-05-03T01:19:04.617Z,983.85
2019-05-03T01:20:04.614Z,983.85
2019-05-03T01:21:04.617Z,983.84
2019-05-03T01:22:04.606Z,983.83
2019-05-03T01:23:04.612Z,983.85
2019-05-03T01:24:04.598Z,983.87
2019-05-03T01:25:04.597Z,983.87
2019-05-03T01:26:04.590Z,983.89
2019-05-03T01:27:04.593Z,983.95
2019-05-03T01:28:04.584Z,983.92
2019-05-03T01:29:04.577Z,983.93
2019-05-03T01:30:04.582Z,983.93
2019-05-03T01:31:04.574Z,983.93
2019-05-03T01:32:04.566Z,983.92
2019-05-03T01:33:04.572Z,983.93
2019-05-03T01:34:04.559Z,983.9
2019-05-03T01:35:04.555Z,983.97
2019-05-03T01:36:04.549Z,983.93
2019-05-03T01:37:04.545Z,983.92
2019-05-03T01:38:04.543Z,983.96
2019-05-03T01:39:04.538Z,983.96
2019-05-03T01:40:04.540Z,983.95
2019-05-03T01:41:04.529Z,983.94
2019-05-03T01:42:04.536Z,983.95
2019-05-03T01:43:04.522Z,983.94
2019-05-03T01:44:04.518Z,983.98
2019-05-03T01:45:04.529Z,983.96
2019-05-03T01:46:04.510Z,983.96
2019-05-03T01:47:04.505Z,984.01
2019-05-03T01:48:04.504Z,984.02
2019-05-03T01:49:04.499Z,984.01
2019-05-03T01:50:04.503Z,983.95
2019-05-03T01:51:04.490Z,983.97
2019-05-03T01:52:04.488Z,983.96
2019-05-03T01:53:04.485Z,983.98
2019-05-03T01:54:04.481Z,983.97
2019-05-03T01:55:04.475Z,983.94
2019-05-03T01:56:04.470Z,983.98
2019-05-03T01:57:04.467Z,983.98
2019-05-03T01:58:04.461Z,983.99
2019-05-03T01:59:04.459Z,983.96
2019-05-03T02:00:04.456Z,983.96
2019-05-03T02:01:04.451Z,983.95
2019-05-03T02:02:07.202Z,983.95
2019-05-03T02:03:04.444Z,983.96
2019-05-03T02:04:04.437Z,983.96
2019-05-03T02:05:04.432Z,983.98
2019-05-03T02:06:04.430Z,983.97
2019-05-03T02:07:04.427Z,983.98
2019-05-03T02:08:04.432Z,983.99
2019-05-03T02:09:04.420Z,983.99
2019-05-03T02:10:04.420Z,983.99
2019-05-03T02:11:04.412Z,983.98
2019-05-03T02:12:04.409Z,984.01
2019-05-03T02:13:04.400Z,983.95
2019-05-03T02:14:04.421Z,983.96
2019-05-03T02:15:04.403Z,983.98
2019-05-03T02:16:04.400Z,983.96
2019-05-03T02:17:04.386Z,984
2019-05-03T02:18:04.385Z,984
2019-05-03T02:19:04.379Z,983.99
2019-05-03T02:20:04.371Z,984.02
2019-05-03T02:21:04.371Z,984.03
2019-05-03T02:22:04.366Z,984.03
2019-05-03T02:23:04.361Z,984.04
2019-05-03T02:24:04.372Z,984.03
2019-05-03T02:25:04.357Z,984.07
2019-05-03T02:26:04.352Z,984.02
2019-05-03T02:27:04.348Z,984.01
2019-05-03T02:28:04.343Z,984.03
2019-05-03T02:29:04.337Z,984.06
2019-05-03T02:30:04.338Z,984.07
2019-05-03T02:31:04.341Z,984.05
2019-05-03T02:32:04.328Z,984.06
2019-05-03T02:33:04.441Z,984.05
2019-05-03T02:34:04.326Z,984.05
2019-05-03T02:35:04.321Z,984.08
2019-05-03T02:36:04.315Z,984.09
2019-05-03T02:37:04.310Z,984.05
2019-05-03T02:38:04.314Z,984.06
2019-05-03T02:39:04.297Z,984.06
2019-05-03T02:40:04.539Z,984.06
2019-05-03T02:41:04.307Z,984.02
2019-05-03T02:42:10.257Z,984.03
2019-05-03T02:43:05.515Z,984.01
2019-05-03T02:44:06.255Z,984.03
2019-05-03T02:45:06.023Z,983.97
2019-05-03T02:46:05.804Z,984.03
2019-05-03T02:47:05.514Z,984
2019-05-03T02:48:05.965Z,984
2019-05-03T02:49:06.365Z,984.01
2019-05-03T02:50:05.808Z,984.03
2019-05-03T02:51:06.499Z,984.06
2019-05-03T02:52:06.579Z,984.09
2019-05-03T02:53:05.733Z,984.06
2019-05-03T02:54:05.550Z,984.12
2019-05-03T02:55:06.033Z,984.11
2019-05-03T02:56:14.830Z,984.09
2019-05-03T02:57:06.277Z,984.12
2019-05-03T02:58:05.688Z,984.13
2019-05-03T02:59:06.126Z,984.12
2019-05-03T03:00:05.007Z,984.12
2019-05-03T03:01:06.455Z,984.12
2019-05-03T03:02:06.269Z,984.1
2019-05-03T03:03:05.469Z,984.13
2019-05-03T03:04:05.227Z,984.06
2019-05-03T03:05:05.730Z,984.08
2019-05-03T03:06:06.679Z,984.1
2019-05-03T03:07:05.628Z,984.07
2019-05-03T03:08:05.911Z,984.08
2019-05-03T03:09:05.402Z,984.08
2019-05-03T03:10:05.266Z,984.14
2019-05-03T03:11:06.213Z,984.1
2019-05-03T03:12:06.024Z,984.1
2019-05-03T03:13:05.873Z,984.11
2019-05-03T03:14:05.700Z,984.13
2019-05-03T03:15:06.126Z,984.1
2019-05-03T03:16:06.603Z,984.12
2019-05-03T03:17:06.530Z,984.15
2019-05-03T03:18:06.236Z,984.12
2019-05-03T03:19:06.546Z,984.12
2019-05-03T03:20:05.426Z,984.13
2019-05-03T03:21:05.767Z,984.1
2019-05-03T03:22:05.817Z,984.18
2019-05-03T03:23:06.107Z,984.13
2019-05-03T03:24:06.067Z,984.15
2019-05-03T03:25:05.379Z,984.14
2019-05-03T03:26:06.150Z,984.14
2019-05-03T03:27:05.294Z,984.19
2019-05-03T03:28:05.285Z,984.16
2019-05-03T03:29:05.579Z,984.21
2019-05-03T03:30:07.417Z,984.15
2019-05-03T03:31:08.149Z,984.17
2019-05-03T03:32:08.659Z,984.15
2019-05-03T03:33:07.977Z,984.19
2019-05-03T03:34:08.036Z,984.17
2019-05-03T03:35:10.958Z,984.23
2019-05-03T03:36:31.079Z,984.19
2019-05-03T03:37:15.822Z,984.2
2019-05-03T03:38:15.716Z,984.21
2019-05-03T03:39:15.713Z,984.21
2019-05-03T03:40:16.107Z,984.21
2019-05-03T03:41:16.340Z,984.25
2019-05-03T03:42:16.236Z,984.24
2019-05-03T03:43:15.794Z,984.19
2019-05-03T03:44:15.703Z,984.24
2019-05-03T03:45:16.458Z,984.18
2019-05-03T03:46:15.941Z,984.19
2019-05-03T03:47:16.592Z,984.22
2019-05-03T03:48:15.939Z,984.23
2019-05-03T03:49:15.677Z,984.23
2019-05-03T03:50:15.674Z,984.26
2019-05-03T03:51:15.669Z,984.27
2019-05-03T03:52:16.072Z,984.29
2019-05-03T03:53:15.662Z,984.25
2019-05-03T03:54:15.658Z,984.27
2019-05-03T03:55:16.159Z,984.29
2019-05-03T03:56:16.085Z,984.3
2019-05-03T03:57:15.987Z,984.3
2019-05-03T03:58:21.905Z,984.34
2019-05-03T03:59:15.642Z,984.3
2019-05-03T04:00:16.207Z,984.34
2019-05-03T04:01:15.806Z,984.32
2019-05-03T04:02:16.097Z,984.36
2019-05-03T04:03:15.938Z,984.35
2019-05-03T04:04:16.105Z,984.36
2019-05-03T04:05:15.994Z,984.33
2019-05-03T04:06:15.620Z,984.39
2019-05-03T04:07:16.022Z,984.39
2019-05-03T04:08:16.107Z,984.37
2019-05-03T04:09:16.130Z,984.43
2019-05-03T04:10:15.793Z,984.47
2019-05-03T04:11:15.708Z,984.45
2019-05-03T04:12:16.401Z,984.46
2019-05-03T04:13:16.045Z,984.51
2019-05-03T04:14:16.079Z,984.5
2019-05-03T04:15:15.973Z,984.52
2019-05-03T04:16:18.432Z,984.5
2019-05-03T04:17:15.575Z,984.55
2019-05-03T04:18:16.283Z,984.53
2019-05-03T04:19:17.329Z,984.53
2019-05-03T04:20:16.192Z,984.52
2019-05-03T04:21:16.173Z,984.59
2019-05-03T04:22:16.401Z,984.61
2019-05-03T04:23:16.188Z,984.65
2019-05-03T04:24:16.238Z,984.6
2019-05-03T04:25:15.749Z,984.63
2019-05-03T04:26:16.209Z,984.64
2019-05-03T04:27:22.813Z,984.64
2019-05-03T04:28:16.168Z,984.66
2019-05-03T04:29:16.017Z,984.69
2019-05-03T04:30:16.415Z,984.66
2019-05-03T04:31:15.506Z,984.68
2019-05-03T04:32:15.884Z,984.68
2019-05-03T04:33:16.081Z,984.7
2019-05-03T04:34:16.169Z,984.71
2019-05-03T04:35:16.290Z,984.7
2019-05-03T04:36:16.036Z,984.71
2019-05-03T04:37:16.091Z,984.69
2019-05-03T04:38:16.183Z,984.72
2019-05-03T04:39:19.147Z,984.67
2019-05-03T04:40:15.860Z,984.69
2019-05-03T04:41:15.952Z,984.72
2019-05-03T04:42:16.426Z,984.68
2019-05-03T04:43:16.428Z,984.71
2019-05-03T04:44:15.694Z,984.68
2019-05-03T04:45:16.455Z,984.69
2019-05-03T04:46:16.340Z,984.72
2019-05-03T04:47:15.865Z,984.74
2019-05-03T04:48:15.964Z,984.73
2019-05-03T04:49:15.430Z,984.75
2019-05-03T04:50:16.659Z,984.76
2019-05-03T04:51:16.621Z,984.77
2019-05-03T04:52:16.429Z,984.76
2019-05-03T04:53:16.109Z,984.81
2019-05-03T04:54:16.325Z,984.77
2019-05-03T04:55:16.061Z,984.77
2019-05-03T04:56:16.844Z,984.76
2019-05-03T04:57:15.987Z,984.81
2019-05-03T04:58:16.072Z,984.78
2019-05-03T04:59:16.027Z,984.81
2019-05-03T05:00:15.940Z,984.83
2019-05-03T05:01:21.100Z,984.85
2019-05-03T05:02:15.999Z,984.85
2019-05-03T05:03:15.374Z,984.86
2019-05-03T05:04:16.047Z,984.9
2019-05-03T05:05:15.632Z,984.87
2019-05-03T05:06:15.622Z,984.88
2019-05-03T05:07:15.738Z,984.91
2019-05-03T05:08:16.198Z,984.89
2019-05-03T05:09:15.703Z,984.88
2019-05-03T05:10:15.621Z,984.92
2019-05-03T05:11:15.851Z,984.9
2019-05-03T05:12:16.093Z,984.91
2019-05-03T05:13:15.822Z,984.95
2019-05-03T05:14:15.515Z,984.93
2019-05-03T05:15:15.723Z,984.91
2019-05-03T05:16:15.985Z,984.93
2019-05-03T05:17:16.245Z,984.9
2019-05-03T05:18:16.099Z,984.95
2019-05-03T05:19:15.329Z,984.94
2019-05-03T05:20:15.313Z,984.96
2019-05-03T05:21:15.309Z,984.96
2019-05-03T05:22:15.582Z,984.98
2019-05-03T05:23:15.299Z,984.99
2019-05-03T05:24:15.291Z,985
2019-05-03T05:25:15.286Z,984.99
2019-05-03T05:26:15.291Z,985.01
2019-05-03T05:27:15.279Z,985
2019-05-03T05:28:15.274Z,985.03
2019-05-03T05:29:15.270Z,985.02
2019-05-03T05:30:15.270Z,985.04
2019-05-03T05:31:15.296Z,985.04
2019-05-03T05:32:15.260Z,985.02
2019-05-03T05:33:15.261Z,985.09
2019-05-03T05:34:15.426Z,985.09
2019-05-03T05:35:15.249Z,985.11
2019-05-03T05:36:15.437Z,985.09
2019-05-03T05:37:15.239Z,985.11
2019-05-03T05:38:15.234Z,985.13
2019-05-03T05:39:16.180Z,985.15
2019-05-03T05:40:15.648Z,985.16
2019-05-03T05:41:15.668Z,985.16
2019-05-03T05:42:15.218Z,985.16
2019-05-03T05:43:15.321Z,985.22
2019-05-03T05:44:15.210Z,985.21
2019-05-03T05:45:15.419Z,985.25
2019-05-03T05:46:15.203Z,985.26
2019-05-03T05:47:15.208Z,985.35
2019-05-03T05:48:15.388Z,985.29
2019-05-03T05:49:15.199Z,985.34
2019-05-03T05:50:15.193Z,985.42
2019-05-03T05:51:16.102Z,985.38
2019-05-03T05:52:15.507Z,985.36
2019-05-03T05:53:15.337Z,985.35
2019-05-03T05:54:15.167Z,985.43
2019-05-03T05:55:15.169Z,985.41
2019-05-03T05:56:15.749Z,985.41
2019-05-03T05:57:15.156Z,985.42
2019-05-03T05:58:15.666Z,985.45
2019-05-03T05:59:15.146Z,985.44
2019-05-03T06:00:15.344Z,985.49
2019-05-03T06:01:15.157Z,985.48
2019-05-03T06:02:15.155Z,985.51
2019-05-03T06:03:15.133Z,985.57
2019-05-03T06:04:15.435Z,985.58
2019-05-03T06:05:15.149Z,985.58
2019-05-03T06:06:15.321Z,985.67
2019-05-03T06:07:15.113Z,985.65
2019-05-03T06:08:15.213Z,985.6
2019-05-03T06:09:15.365Z,985.69
2019-05-03T06:10:16.650Z,985.71
2019-05-03T06:11:15.091Z,985.7
2019-05-03T06:12:15.156Z,985.7
2019-05-03T06:13:15.300Z,985.71
2019-05-03T06:14:15.323Z,985.77
2019-05-03T06:15:15.116Z,985.77
2019-05-03T06:16:15.531Z,985.82
2019-05-03T06:17:15.073Z,985.84
2019-05-03T06:18:15.058Z,985.82
2019-05-03T06:19:15.053Z,985.89
2019-05-03T06:20:15.589Z,985.89
2019-05-03T06:21:15.042Z,985.93
2019-05-03T06:22:15.390Z,985.94
2019-05-03T06:23:15.033Z,985.98
2019-05-03T06:24:15.028Z,986.01
2019-05-03T06:25:16.557Z,986.03
2019-05-03T06:26:15.627Z,986.05
2019-05-03T06:27:15.314Z,986.04
2019-05-03T06:28:20.064Z,986.05
2019-05-03T06:29:15.110Z,986.02
2019-05-03T06:30:15.038Z,986.08
2019-05-03T06:31:15.010Z,986.06
2019-05-03T06:32:15.345Z,986.08
2019-05-03T06:33:14.991Z,986.08
2019-05-03T06:34:15.114Z,986.19
2019-05-03T06:35:15.169Z,986.17
2019-05-03T06:36:15.308Z,986.21
2019-05-03T06:37:14.962Z,986.17
2019-05-03T06:38:15.272Z,986.19
2019-05-03T06:39:15.415Z,986.2
2019-05-03T06:40:15.124Z,986.24
2019-05-03T06:41:15.159Z,986.22
2019-05-03T06:42:19.078Z,986.19
2019-05-03T06:43:15.718Z,986.2
2019-05-03T06:44:19.128Z,986.17
2019-05-03T06:45:15.185Z,986.22
2019-05-03T06:46:17.778Z,986.2
2019-05-03T06:47:15.010Z,986.23
2019-05-03T06:48:17.208Z,986.18
2019-05-03T06:49:15.213Z,986.2
2019-05-03T06:50:19.371Z,986.21
2019-05-03T06:51:19.855Z,986.23
2019-05-03T06:52:14.918Z,986.25
2019-05-03T06:53:15.507Z,986.3
2019-05-03T06:54:15.699Z,986.27
2019-05-03T06:55:14.881Z,986.27
2019-05-03T06:56:14.941Z,986.32
2019-05-03T06:57:14.894Z,986.33
2019-05-03T06:58:15.289Z,986.32
2019-05-03T06:59:14.870Z,986.34
2019-05-03T07:00:15.412Z,986.37
2019-05-03T07:01:14.982Z,986.34
2019-05-03T07:02:14.951Z,986.36
2019-05-03T07:03:15.195Z,986.35
2019-05-03T07:04:15.273Z,986.38
2019-05-03T07:05:15.315Z,986.34
2019-05-03T07:06:15.117Z,986.36
2019-05-03T07:07:15.506Z,986.37
2019-05-03T07:08:15.205Z,986.38
2019-05-03T07:09:14.824Z,986.43
2019-05-03T07:10:15.034Z,986.39
2019-05-03T07:11:15.421Z,986.42
2019-05-03T07:12:14.974Z,986.4
2019-05-03T07:13:15.266Z,986.43
2019-05-03T07:14:15.526Z,986.44
2019-05-03T07:15:14.792Z,986.4
2019-05-03T07:16:14.990Z,986.43
2019-05-03T07:17:14.785Z,986.47
2019-05-03T07:18:15.689Z,986.46
2019-05-03T07:19:14.863Z,986.5
2019-05-03T07:20:14.867Z,986.54
2019-05-03T07:21:15.219Z,986.54
2019-05-03T07:22:15.219Z,986.58
2019-05-03T07:23:15.547Z,986.52
2019-05-03T07:24:14.808Z,986.53
2019-05-03T07:25:14.981Z,986.55
2019-05-03T07:26:15.138Z,986.6
2019-05-03T07:27:15.819Z,986.54
2019-05-03T07:28:15.150Z,986.55
2019-05-03T07:29:15.278Z,986.57
2019-05-03T07:30:15.616Z,986.57
2019-05-03T07:31:15.234Z,986.59
2019-05-03T07:32:15.568Z,986.6
2019-05-03T07:33:15.120Z,986.55
2019-05-03T07:34:15.543Z,986.59
2019-05-03T07:35:14.846Z,986.58
2019-05-03T07:36:15.345Z,986.59
2019-05-03T07:37:14.708Z,986.58
2019-05-03T07:38:15.499Z,986.61
2019-05-03T07:39:14.711Z,986.59
2019-05-03T07:40:14.916Z,986.59
2019-05-03T07:41:14.942Z,986.62
2019-05-03T07:42:15.624Z,986.59
2019-05-03T07:43:14.949Z,986.61
2019-05-03T07:44:15.168Z,986.61
2019-05-03T07:45:14.924Z,986.59
2019-05-03T07:46:14.857Z,986.57
2019-05-03T07:47:14.895Z,986.56
2019-05-03T07:48:15.015Z,986.61
2019-05-03T07:49:15.293Z,986.61
2019-05-03T07:50:15.258Z,986.69
2019-05-03T07:51:14.651Z,986.69
2019-05-03T07:52:14.891Z,986.69
2019-05-03T07:53:15.121Z,986.63
2019-05-03T07:54:15.647Z,986.67
2019-05-03T07:55:15.007Z,986.63
2019-05-03T07:56:15.409Z,986.6
2019-05-03T07:57:14.967Z,986.61
2019-05-03T07:58:15.071Z,986.64
2019-05-03T07:59:15.021Z,986.64
2019-05-03T08:00:15.005Z,986.63
2019-05-03T08:01:14.971Z,986.64
2019-05-03T08:02:14.647Z,986.63
2019-05-03T08:03:15.427Z,986.6
2019-05-03T08:04:15.374Z,986.57
2019-05-03T08:05:15.509Z,986.57
2019-05-03T08:06:14.977Z,986.61
2019-05-03T08:07:22.171Z,986.62
2019-05-03T08:08:15.016Z,986.65
2019-05-03T08:09:15.273Z,986.66
2019-05-03T08:10:15.263Z,986.61
2019-05-03T08:11:14.677Z,986.62
2019-05-03T08:12:15.329Z,986.67
2019-05-03T08:13:15.186Z,986.62
2019-05-03T08:14:17.570Z,986.62
2019-05-03T08:15:15.684Z,986.65
2019-05-03T08:16:16.034Z,986.57
2019-05-03T08:17:15.214Z,986.61
2019-05-03T08:18:15.238Z,986.63
2019-05-03T08:19:15.175Z,986.59
2019-05-03T08:20:14.549Z,986.61
2019-05-03T08:21:14.957Z,986.64
2019-05-03T08:22:15.359Z,986.57
2019-05-03T08:23:26.080Z,986.64
2019-05-03T08:24:14.968Z,986.58
2019-05-03T08:25:14.673Z,986.69
2019-05-03T08:26:15.238Z,986.63
2019-05-03T08:27:14.859Z,986.67
2019-05-03T08:28:14.805Z,986.71
2019-05-03T08:29:18.431Z,986.64
2019-05-03T08:30:14.734Z,986.64
2019-05-03T08:31:15.029Z,986.66
2019-05-03T08:32:15.386Z,986.64
2019-05-03T08:33:14.838Z,986.69
2019-05-03T08:34:15.258Z,986.66
2019-05-03T08:35:15.233Z,986.64
2019-05-03T08:36:15.611Z,986.65
2019-05-03T08:37:15.306Z,986.69
2019-05-03T08:38:15.249Z,986.67
2019-05-03T08:39:15.808Z,986.67
2019-05-03T08:40:15.562Z,986.69
2019-05-03T08:41:14.600Z,986.67
2019-05-03T08:42:14.918Z,986.65
2019-05-03T08:43:15.539Z,986.66
2019-05-03T08:44:14.661Z,986.67
2019-05-03T08:45:14.857Z,986.68
2019-05-03T08:46:14.886Z,986.66
2019-05-03T08:47:15.468Z,986.59
2019-05-03T08:48:15.164Z,986.59
2019-05-03T08:49:15.009Z,986.6
2019-05-03T08:50:18.995Z,986.62
2019-05-03T08:51:14.908Z,986.55
2019-05-03T08:52:15.672Z,986.59
2019-05-03T08:53:15.269Z,986.6
2019-05-03T08:54:15.043Z,986.68
2019-05-03T08:55:15.796Z,986.64
2019-05-03T08:56:15.621Z,986.62
2019-05-03T08:57:14.931Z,986.64
2019-05-03T08:58:15.478Z,986.61
2019-05-03T08:59:26.673Z,986.56
2019-05-03T09:00:14.571Z,986.54
2019-05-03T09:01:14.892Z,986.5
2019-05-03T09:02:17.513Z,986.48
2019-05-03T09:03:14.571Z,986.46
2019-05-03T09:04:15.389Z,986.46
2019-05-03T09:05:15.699Z,986.45
2019-05-03T09:06:15.401Z,986.51
2019-05-03T09:07:14.860Z,986.54
2019-05-03T09:08:15.684Z,986.54
2019-05-03T09:09:15.044Z,986.48
2019-05-03T09:10:16.746Z,986.55
2019-05-03T09:11:15.506Z,986.57
2019-05-03T09:12:14.583Z,986.59
2019-05-03T09:13:14.806Z,986.59
2019-05-03T09:14:14.938Z,986.57
2019-05-03T09:15:15.188Z,986.66
2019-05-03T09:16:14.816Z,986.68
2019-05-03T09:17:15.231Z,986.71
2019-05-03T09:18:17.307Z,986.69
2019-05-03T09:19:14.789Z,986.66
2019-05-03T09:20:15.523Z,986.57
2019-05-03T09:21:14.831Z,986.59
2019-05-03T09:22:14.717Z,986.62
2019-05-03T09:23:14.945Z,986.54
2019-05-03T09:24:15.158Z,986.56
2019-05-03T09:25:15.429Z,986.52
2019-05-03T09:26:15.041Z,986.56
2019-05-03T09:27:15.405Z,986.54
2019-05-03T09:28:15.018Z,986.51
2019-05-03T09:29:14.829Z,986.53
2019-05-03T09:30:14.658Z,986.55
2019-05-03T09:31:15.438Z,986.52
2019-05-03T09:32:14.768Z,986.49
2019-05-03T09:33:15.286Z,986.49
2019-05-03T09:34:14.837Z,986.49
2019-05-03T09:35:28.784Z,986.55
2019-05-03T09:36:14.778Z,986.59
2019-05-03T09:37:15.468Z,986.63
2019-05-03T09:38:15.113Z,986.63
2019-05-03T09:39:14.932Z,986.57
2019-05-03T09:40:15.050Z,986.64
2019-05-03T09:41:15.105Z,986.65
2019-05-03T09:42:15.378Z,986.63
2019-05-03T09:43:15.033Z,986.59
2019-05-03T09:44:15.067Z,986.6
2019-05-03T09:45:15.337Z,986.61
2019-05-03T09:46:14.720Z,986.61
2019-05-03T09:47:14.685Z,986.56
2019-05-03T09:48:15.276Z,986.6
2019-05-03T09:49:16.479Z,986.55
2019-05-03T09:50:15.609Z,986.55
2019-05-03T09:51:14.825Z,986.55
2019-05-03T09:52:15.983Z,986.54
2019-05-03T09:53:14.781Z,986.57
2019-05-03T09:54:14.898Z,986.52
2019-05-03T09:55:14.596Z,986.61
2019-05-03T09:56:15.465Z,986.54
2019-05-03T09:57:15.221Z,986.43
2019-05-03T09:58:15.275Z,986.45
2019-05-03T09:59:14.807Z,986.42
2019-05-03T10:00:16.166Z,986.44
2019-05-03T10:01:15.015Z,986.46
2019-05-03T10:02:15.137Z,986.38
2019-05-03T10:03:14.441Z,986.32
2019-05-03T10:04:14.440Z,986.36
2019-05-03T10:05:15.572Z,986.35
2019-05-03T10:06:17.433Z,986.36
2019-05-03T10:07:15.278Z,986.39
2019-05-03T10:08:15.707Z,986.34
2019-05-03T10:09:15.363Z,986.4
2019-05-03T10:10:15.369Z,986.47
2019-05-03T10:11:15.429Z,986.58
2019-05-03T10:12:16.059Z,986.56
2019-05-03T10:13:23.146Z,986.58
2019-05-03T10:14:15.531Z,986.51
2019-05-03T10:15:15.310Z,986.5
2019-05-03T10:16:15.561Z,986.42
2019-05-03T10:17:15.927Z,986.39
2019-05-03T10:18:14.436Z,986.37
2019-05-03T10:19:16.212Z,986.42
2019-05-03T10:20:15.301Z,986.39
2019-05-03T10:21:14.858Z,986.37
2019-05-03T10:22:15.344Z,986.33
2019-05-03T10:23:14.941Z,986.35
2019-05-03T10:24:15.203Z,986.32
2019-05-03T10:25:14.441Z,986.29
2019-05-03T10:26:15.052Z,986.26
2019-05-03T10:27:15.189Z,986.32
2019-05-03T10:28:15.278Z,986.31
2019-05-03T10:29:15.213Z,986.33
2019-05-03T10:30:17.031Z,986.36
2019-05-03T10:31:14.642Z,986.45
2019-05-03T10:32:15.111Z,986.45
2019-05-03T10:33:15.476Z,986.42
2019-05-03T10:34:15.507Z,986.43
2019-05-03T10:35:15.095Z,986.39
2019-05-03T10:36:15.367Z,986.4
2019-05-03T10:37:15.128Z,986.33
2019-05-03T10:38:15.116Z,986.3
2019-05-03T10:39:15.452Z,986.27
2019-05-03T10:40:14.418Z,986.23
2019-05-03T10:41:14.420Z,986.09
2019-05-03T10:42:14.422Z,986.07
2019-05-03T10:43:14.460Z,986.09
2019-05-03T10:44:15.028Z,986.07
2019-05-03T10:45:15.231Z,986.08
2019-05-03T10:46:15.862Z,986.1
2019-05-03T10:47:14.749Z,986.11
2019-05-03T10:48:15.408Z,986.12
2019-05-03T10:49:15.291Z,986.11
2019-05-03T10:50:15.561Z,986.07
2019-05-03T10:51:15.615Z,986.07
2019-05-03T10:52:14.992Z,986.08
2019-05-03T10:53:15.375Z,986.15
2019-05-03T10:54:14.670Z,986.14
2019-05-03T10:55:15.867Z,986.22
2019-05-03T10:56:20.171Z,986.2
2019-05-03T10:57:15.878Z,986.2
2019-05-03T10:58:16.094Z,986.24
2019-05-03T10:59:14.422Z,986.23
2019-05-03T11:00:41.536Z,986.2
2019-05-03T11:01:14.404Z,986.16
2019-05-03T11:02:14.403Z,986.13
2019-05-03T11:03:14.400Z,986.13
2019-05-03T11:04:14.853Z,986.12
2019-05-03T11:05:14.651Z,986.13
2019-05-03T11:06:14.814Z,986.2
2019-05-03T11:07:14.877Z,986.16
2019-05-03T11:08:14.602Z,986.2
2019-05-03T11:09:15.214Z,986.17
2019-05-03T11:10:14.739Z,986.18
2019-05-03T11:11:15.060Z,986.21
2019-05-03T11:12:14.824Z,986.19
2019-05-03T11:13:15.410Z,986.22
2019-05-03T11:14:14.905Z,986.21
2019-05-03T11:15:14.958Z,986.25
2019-05-03T11:16:14.790Z,986.28
2019-05-03T11:17:14.846Z,986.3
2019-05-03T11:18:14.763Z,986.28
2019-05-03T11:19:14.580Z,986.26
2019-05-03T11:20:27.681Z,986.2
2019-05-03T11:21:18.157Z,986.14
2019-05-03T11:22:14.624Z,986.16
2019-05-03T11:23:14.674Z,986.17
2019-05-03T11:24:14.829Z,986.12
2019-05-03T11:25:14.359Z,986.14
2019-05-03T11:26:14.354Z,986.13
2019-05-03T11:27:14.350Z,986.08
2019-05-03T11:28:14.353Z,986.07
2019-05-03T11:29:15.751Z,986.11
2019-05-03T11:30:15.733Z,986.13
2019-05-03T11:31:15.504Z,986.15
2019-05-03T11:32:14.847Z,986.12
2019-05-03T11:33:15.238Z,986.1
2019-05-03T11:34:15.088Z,986.12
2019-05-03T11:35:14.998Z,986.1
2019-05-03T11:36:14.920Z,986
2019-05-03T11:37:14.565Z,986.02
2019-05-03T11:38:15.050Z,985.98
2019-05-03T11:39:14.501Z,985.98
2019-05-03T11:40:15.674Z,985.93
2019-05-03T11:41:19.132Z,985.89
2019-05-03T11:42:15.294Z,985.88
2019-05-03T11:43:15.234Z,985.84
2019-05-03T11:44:15.399Z,985.88
2019-05-03T11:45:15.189Z,985.9
2019-05-03T11:46:14.327Z,985.86
2019-05-03T11:47:14.983Z,985.89
2019-05-03T11:48:14.779Z,985.86
2019-05-03T11:49:14.848Z,985.88
2019-05-03T11:50:14.805Z,985.88
2019-05-03T11:51:15.177Z,985.86
2019-05-03T11:52:15.779Z,985.84
2019-05-03T11:53:14.653Z,985.87
2019-05-03T11:54:15.589Z,985.89
2019-05-03T11:55:15.884Z,985.93
2019-05-03T11:56:14.808Z,985.96
2019-05-03T11:57:15.728Z,985.98
2019-05-03T11:58:14.944Z,985.96
2019-05-03T11:59:14.759Z,985.92
2019-05-03T12:00:14.765Z,985.96
2019-05-03T12:01:18.972Z,985.95
2019-05-03T12:02:15.313Z,985.93
2019-05-03T12:03:15.524Z,985.94
2019-05-03T12:04:15.335Z,985.94
2019-05-03T12:05:15.105Z,985.87
2019-05-03T12:06:15.623Z,985.93
2019-05-03T12:07:15.093Z,985.92
2019-05-03T12:08:14.708Z,985.95
2019-05-03T12:09:15.475Z,985.96
2019-05-03T12:10:28.805Z,985.99
2019-05-03T12:11:15.040Z,985.97
2019-05-03T12:12:15.168Z,985.93
2019-05-03T12:13:15.739Z,985.91
2019-05-03T12:14:15.389Z,985.93
2019-05-03T12:15:15.082Z,985.92
2019-05-03T12:16:21.197Z,985.9
2019-05-03T12:17:32.819Z,985.9
2019-05-03T12:18:45.879Z,985.92
2019-05-03T12:19:32.736Z,985.9
2019-05-03T12:20:33.255Z,985.86
2019-05-03T12:21:33.113Z,985.88
2019-05-03T12:22:32.625Z,985.84
2019-05-03T12:23:32.801Z,985.85
2019-05-03T12:24:32.741Z,985.83
2019-05-03T12:25:32.709Z,985.83
2019-05-03T12:26:41.401Z,985.81
2019-05-03T12:27:32.194Z,985.76
2019-05-03T12:28:32.194Z,985.6
2019-05-03T12:29:32.195Z,985.71
2019-05-03T12:30:32.194Z,985.71
2019-05-03T12:31:37.543Z,985.73